sensor_id;sensor_type;location;lat;lon;timestamp;pressure;altitude;pressure_sealevel;temperature;humidity
42591;BME280;28218;53.342;-6.216;2023-02-28T00:01:34;103667.44;;;8.09;100.00
42591;BME280;28218;53.342;-6.216;2023-02-28T00:04:03;103676.25;;;8.08;100.00
42591;BME280;28218;53.342;-6.216;2023-02-28T00:06:32;103673.56;;;8.09;100.00
42591;BME280;28218;53.342;-6.216;2023-02-28T00:09:01;103670.84;;;8.11;100.00
42591;BME280;28218;53.342;-6.216;2023-02-28T00:11:29;103675.25;;;8.10;100.00
42591;BME280;28218;53.342;-6.216;2023-02-28T00:13:58;103675.94;;;8.14;100.00
42591;BME280;28218;53.342;-6.216;2023-02-28T00:16:26;103678.56;;;8.14;100.00
42591;BME280;28218;53.342;-6.216;2023-02-28T00:18:55;103672.44;;;8.13;100.00
42591;BME280;28218;53.342;-6.216;2023-02-28T00:21:23;103678.56;;;8.14;100.00
42591;BME280;28218;53.342;-6.216;2023-02-28T00:23:53;103680.25;;;8.15;100.00
42591;BME280;28218;53.342;-6.216;2023-02-28T00:26:21;103678.47;;;8.15;100.00
42591;BME280;28218;53.342;-6.216;2023-02-28T00:28:51;103682.78;;;8.16;100.00
42591;BME280;28218;53.342;-6.216;2023-02-28T00:31:20;103691.44;;;8.18;100.00
42591;BME280;28218;53.342;-6.216;2023-02-28T00:33:48;103693.22;;;8.18;100.00
42591;BME280;28218;53.342;-6.216;2023-02-28T00:36:18;103690.59;;;8.18;100.00
42591;BME280;28218;53.342;-6.216;2023-02-28T00:38:46;103694.84;;;8.20;100.00
42591;BME280;28218;53.342;-6.216;2023-02-28T00:41:16;103693.06;;;8.21;100.00
42591;BME280;28218;53.342;-6.216;2023-02-28T00:43:44;103689.59;;;8.20;100.00
42591;BME280;28218;53.342;-6.216;2023-02-28T00:46:12;103697.38;;;8.22;100.00
42591;BME280;28218;53.342;-6.216;2023-02-28T00:48:41;103696.44;;;8.23;100.00
42591;BME280;28218;53.342;-6.216;2023-02-28T00:51:09;103695.53;;;8.24;100.00
42591;BME280;28218;53.342;-6.216;2023-02-28T00:53:37;103690.19;;;8.26;100.00
42591;BME280;28218;53.342;-6.216;2023-02-28T00:56:06;103691.88;;;8.27;100.00
42591;BME280;28218;53.342;-6.216;2023-02-28T00:58:36;103686.72;;;8.25;100.00
42591;BME280;28218;53.342;-6.216;2023-02-28T01:01:04;103683.16;;;8.26;100.00
42591;BME280;28218;53.342;-6.216;2023-02-28T01:03:32;103696.22;;;8.28;100.00
42591;BME280;28218;53.342;-6.216;2023-02-28T01:06:00;103690.81;;;8.31;100.00
42591;BME280;28218;53.342;-6.216;2023-02-28T01:08:28;103689.97;;;8.30;100.00
42591;BME280;28218;53.342;-6.216;2023-02-28T01:10:57;103696.06;;;8.31;100.00
42591;BME280;28218;53.342;-6.216;2023-02-28T01:13:25;103694.28;;;8.31;100.00
42591;BME280;28218;53.342;-6.216;2023-02-28T01:15:55;103694.28;;;8.31;100.00
42591;BME280;28218;53.342;-6.216;2023-02-28T01:18:24;103702.16;;;8.31;100.00
42591;BME280;28218;53.342;-6.216;2023-02-28T01:20:52;103696.91;;;8.31;100.00
42591;BME280;28218;53.342;-6.216;2023-02-28T01:23:21;103693.53;;;8.29;100.00
42591;BME280;28218;53.342;-6.216;2023-02-28T01:25:50;103690.81;;;8.31;100.00
42591;BME280;28218;53.342;-6.216;2023-02-28T01:28:18;103682.06;;;8.30;100.00
42591;BME280;28218;53.342;-6.216;2023-02-28T01:30:50;103690.06;;;8.29;100.00
42591;BME280;28218;53.342;-6.216;2023-02-28T01:33:20;103683.75;;;8.31;100.00
42591;BME280;28218;53.342;-6.216;2023-02-28T01:35:48;103689.13;;;8.30;100.00
42591;BME280;28218;53.342;-6.216;2023-02-28T01:38:16;103688.19;;;8.31;100.00
42591;BME280;28218;53.342;-6.216;2023-02-28T01:40:49;103686.41;;;8.31;100.00
42591;BME280;28218;53.342;-6.216;2023-02-28T01:43:22;103680.19;;;8.32;100.00
42591;BME280;28218;53.342;-6.216;2023-02-28T01:45:51;103685.47;;;8.32;100.00
42591;BME280;28218;53.342;-6.216;2023-02-28T01:48:28;103684.63;;;8.32;100.00
42591;BME280;28218;53.342;-6.216;2023-02-28T01:51:03;103680.19;;;8.32;100.00
42591;BME280;28218;53.342;-6.216;2023-02-28T01:53:39;103680.19;;;8.32;100.00
42591;BME280;28218;53.342;-6.216;2023-02-28T01:56:12;103678.38;;;8.34;100.00
42591;BME280;28218;53.342;-6.216;2023-02-28T01:58:47;103675.72;;;8.34;100.00
42591;BME280;28218;53.342;-6.216;2023-02-28T02:01:15;103673.09;;;8.34;100.00
42591;BME280;28218;53.342;-6.216;2023-02-28T02:03:50;103674.81;;;8.35;100.00
42591;BME280;28218;53.342;-6.216;2023-02-28T02:06:22;103678.22;;;8.37;100.00
42591;BME280;28218;53.342;-6.216;2023-02-28T02:08:51;103676.59;;;8.35;100.00
42591;BME280;28218;53.342;-6.216;2023-02-28T02:11:20;103677.56;;;8.32;100.00
42591;BME280;28218;53.342;-6.216;2023-02-28T02:14:09;103673.19;;;8.33;100.00
42591;BME280;28218;53.342;-6.216;2023-02-28T02:16:53;103673.34;;;8.30;100.00
42591;BME280;28218;53.342;-6.216;2023-02-28T02:19:50;103672.31;;;8.32;100.00
42591;BME280;28218;53.342;-6.216;2023-02-28T02:22:51;103671.66;;;8.29;100.00
42591;BME280;28218;53.342;-6.216;2023-02-28T02:25:28;103676.81;;;8.30;100.00
42591;BME280;28218;53.342;-6.216;2023-02-28T02:28:38;103681.94;;;8.33;100.00
42591;BME280;28218;53.342;-6.216;2023-02-28T02:34:23;103688.19;;;8.31;100.00
42591;BME280;28218;53.342;-6.216;2023-02-28T02:37:00;103686.41;;;8.31;100.00
42591;BME280;28218;53.342;-6.216;2023-02-28T02:39:35;103682.22;;;8.27;100.00
42591;BME280;28218;53.342;-6.216;2023-02-28T02:42:14;103683.75;;;8.31;100.00
42591;BME280;28218;53.342;-6.216;2023-02-28T02:44:49;103677.75;;;8.29;100.00
42591;BME280;28218;53.342;-6.216;2023-02-28T02:47:22;103677.66;;;8.31;100.00
42591;BME280;28218;53.342;-6.216;2023-02-28T02:49:55;103678.44;;;8.33;100.00
42591;BME280;28218;53.342;-6.216;2023-02-28T02:52:34;103674.03;;;8.33;100.00
42591;BME280;28218;53.342;-6.216;2023-02-28T02:55:06;103670.47;;;8.34;100.00
42591;BME280;28218;53.342;-6.216;2023-02-28T02:57:41;103670.47;;;8.34;100.00
42591;BME280;28218;53.342;-6.216;2023-02-28T03:00:15;103678.28;;;8.36;100.00
42591;BME280;28218;53.342;-6.216;2023-02-28T03:02:46;103673.09;;;8.34;100.00
42591;BME280;28218;53.342;-6.216;2023-02-28T03:05:19;103677.66;;;8.31;100.00
42591;BME280;28218;53.342;-6.216;2023-02-28T03:07:49;103668.94;;;8.30;100.00
42591;BME280;28218;53.342;-6.216;2023-02-28T03:10:30;103671.81;;;8.26;100.00
42591;BME280;28218;53.342;-6.216;2023-02-28T03:13:08;103669.88;;;8.29;100.00
42591;BME280;28218;53.342;-6.216;2023-02-28T03:15:48;103672.66;;;8.26;100.00
42591;BME280;28218;53.342;-6.216;2023-02-28T03:18:24;103671.72;;;8.27;100.00
42591;BME280;28218;53.342;-6.216;2023-02-28T03:21:02;103677.91;;;8.26;100.00
42591;BME280;28218;53.342;-6.216;2023-02-28T03:23:39;103677.91;;;8.26;100.00
42591;BME280;28218;53.342;-6.216;2023-02-28T03:26:16;103685.88;;;8.25;100.00
42591;BME280;28218;53.342;-6.216;2023-02-28T03:28:52;103673.69;;;8.24;100.00
42591;BME280;28218;53.342;-6.216;2023-02-28T03:31:27;103676.22;;;8.25;100.00
42591;BME280;28218;53.342;-6.216;2023-02-28T03:34:01;103680.53;;;8.26;100.00
42591;BME280;28218;53.342;-6.216;2023-02-28T03:36:36;103681.47;;;8.25;100.00
42591;BME280;28218;53.342;-6.216;2023-02-28T03:39:14;103678.00;;;8.25;100.00
42591;BME280;28218;53.342;-6.216;2023-02-28T03:41:46;103678.16;;;8.22;100.00
42591;BME280;28218;53.342;-6.216;2023-02-28T03:44:19;103680.53;;;8.26;100.00
42591;BME280;28218;53.342;-6.216;2023-02-28T03:46:54;103683.16;;;8.26;100.00
42591;BME280;28218;53.342;-6.216;2023-02-28T03:49:28;103677.81;;;8.28;100.00
42591;BME280;28218;53.342;-6.216;2023-02-28T03:52:02;103687.47;;;8.27;100.00
42591;BME280;28218;53.342;-6.216;2023-02-28T03:54:33;103685.78;;;8.26;100.00
42591;BME280;28218;53.342;-6.216;2023-02-28T03:57:07;103684.84;;;8.27;100.00
42591;BME280;28218;53.342;-6.216;2023-02-28T03:59:41;103681.31;;;8.28;100.00
42591;BME280;28218;53.342;-6.216;2023-02-28T04:02:11;103682.06;;;8.30;100.00
42591;BME280;28218;53.342;-6.216;2023-02-28T04:04:39;103690.91;;;8.29;100.00
42591;BME280;28218;53.342;-6.216;2023-02-28T04:07:17;103689.97;;;8.30;100.00
42591;BME280;28218;53.342;-6.216;2023-02-28T04:09:45;103686.50;;;8.30;100.00
42591;BME280;28218;53.342;-6.216;2023-02-28T04:12:13;103685.53;;;8.31;100.00
42591;BME280;28218;53.342;-6.216;2023-02-28T04:14:41;103690.81;;;8.31;100.00
42591;BME280;28218;53.342;-6.216;2023-02-28T04:17:10;103694.38;;;8.30;100.00
42591;BME280;28218;53.342;-6.216;2023-02-28T04:19:38;103690.06;;;8.29;100.00
42591;BME280;28218;53.342;-6.216;2023-02-28T04:22:08;103690.09;;;8.27;100.00
42591;BME280;28218;53.342;-6.216;2023-02-28T04:24:38;103699.78;;;8.27;100.00
42591;BME280;28218;53.342;-6.216;2023-02-28T04:27:08;103695.38;;;8.27;100.00
42591;BME280;28218;53.342;-6.216;2023-02-28T04:29:37;103702.50;;;8.25;100.00
42591;BME280;28218;53.342;-6.216;2023-02-28T04:32:05;103704.97;;;8.28;100.00
42591;BME280;28218;53.342;-6.216;2023-02-28T04:34:34;103711.06;;;8.29;100.00
42591;BME280;28218;53.342;-6.216;2023-02-28T04:37:02;103706.66;;;8.29;100.00
42591;BME280;28218;53.342;-6.216;2023-02-28T04:39:42;103704.97;;;8.28;100.00
42591;BME280;28218;53.342;-6.216;2023-02-28T04:42:10;103710.22;;;8.28;100.00
42591;BME280;28218;53.342;-6.216;2023-02-28T04:44:39;103709.28;;;8.29;100.00
42591;BME280;28218;53.342;-6.216;2023-02-28T04:47:08;103713.00;;;8.25;100.00
42591;BME280;28218;53.342;-6.216;2023-02-28T04:49:36;103710.47;;;8.24;100.00
42591;BME280;28218;53.342;-6.216;2023-02-28T04:52:04;103718.25;;;8.25;100.00
42591;BME280;28218;53.342;-6.216;2023-02-28T04:54:34;103719.94;;;8.26;100.00
42591;BME280;28218;53.342;-6.216;2023-02-28T04:57:04;103722.47;;;8.28;100.00
42591;BME280;28218;53.342;-6.216;2023-02-28T04:59:32;103724.34;;;8.26;100.00
42591;BME280;28218;53.342;-6.216;2023-02-28T05:02:00;103727.91;;;8.25;100.00
42591;BME280;28218;53.342;-6.216;2023-02-28T05:04:34;103738.66;;;8.20;100.00
42591;BME280;28218;53.342;-6.216;2023-02-28T05:07:03;103745.97;;;8.13;100.00
42591;BME280;28218;53.342;-6.216;2023-02-28T05:09:31;103739.44;;;8.05;100.00
42591;BME280;28218;53.342;-6.216;2023-02-28T05:12:00;103740.66;;;7.98;100.00
42591;BME280;28218;53.342;-6.216;2023-02-28T05:14:30;103739.13;;;7.93;100.00
42591;BME280;28218;53.342;-6.216;2023-02-28T05:16:58;103747.31;;;7.87;100.00
42591;BME280;28218;53.342;-6.216;2023-02-28T05:19:27;103753.63;;;7.83;100.00
42591;BME280;28218;53.342;-6.216;2023-02-28T05:21:55;103753.78;;;7.80;100.00
42591;BME280;28218;53.342;-6.216;2023-02-28T05:24:23;103749.47;;;7.79;100.00
42591;BME280;28218;53.342;-6.216;2023-02-28T05:26:53;103755.50;;;7.81;100.00
42591;BME280;28218;53.342;-6.216;2023-02-28T05:29:21;103752.09;;;7.79;100.00
42591;BME280;28218;53.342;-6.216;2023-02-28T05:31:51;103757.34;;;7.79;100.00
42591;BME280;28218;53.342;-6.216;2023-02-28T05:34:19;103762.59;;;7.79;100.00
42591;BME280;28218;53.342;-6.216;2023-02-28T05:36:48;103767.97;;;7.76;100.00
42591;BME280;28218;53.342;-6.216;2023-02-28T05:39:16;103754.84;;;7.76;100.00
42591;BME280;28218;53.342;-6.216;2023-02-28T05:41:44;103750.53;;;7.75;100.00
42591;BME280;28218;53.342;-6.216;2023-02-28T05:44:12;103754.84;;;7.76;100.00
42591;BME280;28218;53.342;-6.216;2023-02-28T05:46:40;103765.34;;;7.76;100.00
42591;BME280;28218;53.342;-6.216;2023-02-28T05:49:10;103755.63;;;7.78;100.00
42591;BME280;28218;53.342;-6.216;2023-02-28T05:51:38;103768.75;;;7.78;100.00
42591;BME280;28218;53.342;-6.216;2023-02-28T05:54:07;103761.03;;;7.75;100.00
42591;BME280;28218;53.342;-6.216;2023-02-28T05:56:35;103764.59;;;7.74;100.00
42591;BME280;28218;53.342;-6.216;2023-02-28T05:59:05;103764.44;;;7.77;100.00
42591;BME280;28218;53.342;-6.216;2023-02-28T06:01:35;103767.97;;;7.76;100.00
42591;BME280;28218;53.342;-6.216;2023-02-28T06:04:05;103764.44;;;7.77;100.00
42591;BME280;28218;53.342;-6.216;2023-02-28T06:06:39;103753.09;;;7.77;100.00
42591;BME280;28218;53.342;-6.216;2023-02-28T06:09:07;103768.84;;;7.77;100.00
42591;BME280;28218;53.342;-6.216;2023-02-28T06:11:35;103759.19;;;7.77;100.00
42591;BME280;28218;53.342;-6.216;2023-02-28T06:14:06;103757.34;;;7.79;100.00
42591;BME280;28218;53.342;-6.216;2023-02-28T06:16:35;103754.78;;;7.78;100.00
42591;BME280;28218;53.342;-6.216;2023-02-28T06:19:04;103757.47;;;7.76;100.00
42591;BME280;28218;53.342;-6.216;2023-02-28T06:21:32;103760.03;;;7.78;100.00
42591;BME280;28218;53.342;-6.216;2023-02-28T06:24:02;103754.00;;;7.76;100.00
42591;BME280;28218;53.342;-6.216;2023-02-28T06:26:31;103759.34;;;7.74;100.00
42591;BME280;28218;53.342;-6.216;2023-02-28T06:28:59;103766.28;;;7.75;100.00
42591;BME280;28218;53.342;-6.216;2023-02-28T06:31:28;103754.94;;;7.75;100.00
42591;BME280;28218;53.342;-6.216;2023-02-28T06:33:57;103764.44;;;7.77;100.00
42591;BME280;28218;53.342;-6.216;2023-02-28T06:36:25;103767.97;;;7.76;100.00
42591;BME280;28218;53.342;-6.216;2023-02-28T06:38:53;103771.38;;;7.78;100.00
42591;BME280;28218;53.342;-6.216;2023-02-28T06:41:25;103780.03;;;7.80;100.00
42591;BME280;28218;53.342;-6.216;2023-02-28T06:43:54;103771.25;;;7.81;100.00
42591;BME280;28218;53.342;-6.216;2023-02-28T06:46:23;103778.25;;;7.81;100.00
42591;BME280;28218;53.342;-6.216;2023-02-28T06:48:51;103784.38;;;7.81;100.00
42591;BME280;28218;53.342;-6.216;2023-02-28T06:51:20;103779.19;;;7.80;100.00
42591;BME280;28218;53.342;-6.216;2023-02-28T06:53:51;103784.50;;;7.78;100.00
42591;BME280;28218;53.342;-6.216;2023-02-28T06:56:19;103789.78;;;7.78;100.00
42591;BME280;28218;53.342;-6.216;2023-02-28T06:58:50;103795.88;;;7.79;100.00
42591;BME280;28218;53.342;-6.216;2023-02-28T07:01:19;103801.97;;;7.79;100.00
42591;BME280;28218;53.342;-6.216;2023-02-28T07:03:50;103804.59;;;7.79;100.00
42591;BME280;28218;53.342;-6.216;2023-02-28T07:06:19;103806.28;;;7.80;100.00
42591;BME280;28218;53.342;-6.216;2023-02-28T07:08:49;103812.38;;;7.81;100.00
42591;BME280;28218;53.342;-6.216;2023-02-28T07:11:18;103811.53;;;7.80;100.00
42591;BME280;28218;53.342;-6.216;2023-02-28T07:13:49;103811.53;;;7.80;100.00
42591;BME280;28218;53.342;-6.216;2023-02-28T07:16:17;103819.41;;;7.80;100.00
42591;BME280;28218;53.342;-6.216;2023-02-28T07:18:46;103807.28;;;7.78;100.00
42591;BME280;28218;53.342;-6.216;2023-02-28T07:21:15;103809.97;;;7.76;100.00
42591;BME280;28218;53.342;-6.216;2023-02-28T07:23:43;103819.72;;;7.74;100.00
42591;BME280;28218;53.342;-6.216;2023-02-28T07:26:13;103821.50;;;7.74;100.00
42591;BME280;28218;53.342;-6.216;2023-02-28T07:28:42;103821.56;;;7.72;100.00
42591;BME280;28218;53.342;-6.216;2023-02-28T07:31:12;103820.63;;;7.73;100.00
42591;BME280;28218;53.342;-6.216;2023-02-28T07:33:42;103821.50;;;7.74;100.00
42591;BME280;28218;53.342;-6.216;2023-02-28T07:36:12;103825.72;;;7.76;100.00
42591;BME280;28218;53.342;-6.216;2023-02-28T07:38:43;103834.69;;;7.72;100.00
42591;BME280;28218;53.342;-6.216;2023-02-28T07:41:14;103832.34;;;7.66;100.00
42591;BME280;28218;53.342;-6.216;2023-02-28T07:43:43;103831.00;;;7.57;100.00
42591;BME280;28218;53.342;-6.216;2023-02-28T07:46:15;103825.34;;;7.48;100.00
42591;BME280;28218;53.342;-6.216;2023-02-28T07:48:44;103836.13;;;7.41;100.00
42591;BME280;28218;53.342;-6.216;2023-02-28T07:51:12;103838.13;;;7.36;100.00
42591;BME280;28218;53.342;-6.216;2023-02-28T07:53:41;103844.56;;;7.29;100.00
42591;BME280;28218;53.342;-6.216;2023-02-28T07:56:09;103845.63;;;7.25;100.00
42591;BME280;28218;53.342;-6.216;2023-02-28T07:58:38;103852.72;;;7.23;100.00
42591;BME280;28218;53.342;-6.216;2023-02-28T08:01:07;103850.09;;;7.23;100.00
42591;BME280;28218;53.342;-6.216;2023-02-28T08:03:38;103849.16;;;7.24;100.00
42591;BME280;28218;53.342;-6.216;2023-02-28T08:06:11;103845.75;;;7.22;100.00
42591;BME280;28218;53.342;-6.216;2023-02-28T08:08:42;103850.16;;;7.22;100.00
42591;BME280;28218;53.342;-6.216;2023-02-28T08:11:11;103851.78;;;7.24;100.00
42591;BME280;28218;53.342;-6.216;2023-02-28T08:13:39;103846.41;;;7.27;100.00
42591;BME280;28218;53.342;-6.216;2023-02-28T08:16:09;103855.75;;;7.33;100.00
42591;BME280;28218;53.342;-6.216;2023-02-28T08:18:39;103848.69;;;7.35;100.00
42591;BME280;28218;53.342;-6.216;2023-02-28T08:21:07;103849.44;;;7.37;100.00
42591;BME280;28218;53.342;-6.216;2023-02-28T08:23:35;103850.16;;;7.40;100.00
42591;BME280;28218;53.342;-6.216;2023-02-28T08:26:04;103839.38;;;7.47;100.00
42591;BME280;28218;53.342;-6.216;2023-02-28T08:28:32;103846.97;;;7.53;100.00
42591;BME280;28218;53.342;-6.216;2023-02-28T08:31:00;103845.75;;;7.60;100.00
42591;BME280;28218;53.342;-6.216;2023-02-28T08:33:28;103843.84;;;7.63;100.00
42591;BME280;28218;53.342;-6.216;2023-02-28T08:35:59;103852.34;;;7.68;100.00
42591;BME280;28218;53.342;-6.216;2023-02-28T08:38:27;103852.44;;;7.67;100.00
42591;BME280;28218;53.342;-6.216;2023-02-28T08:40:59;103851.50;;;7.68;100.00
42591;BME280;28218;53.342;-6.216;2023-02-28T08:43:28;103850.50;;;7.71;100.00
42591;BME280;28218;53.342;-6.216;2023-02-28T08:45:56;103845.31;;;7.69;100.00
42591;BME280;28218;53.342;-6.216;2023-02-28T08:48:24;103850.34;;;7.74;100.00
42591;BME280;28218;53.342;-6.216;2023-02-28T08:50:57;103858.00;;;7.78;100.00
42591;BME280;28218;53.342;-6.216;2023-02-28T08:53:35;103855.25;;;7.81;100.00
42591;BME280;28218;53.342;-6.216;2023-02-28T08:56:06;103853.41;;;7.83;100.00
42591;BME280;28218;53.342;-6.216;2023-02-28T08:58:35;103850.78;;;7.83;100.00
42591;BME280;28218;53.342;-6.216;2023-02-28T09:01:08;103859.28;;;7.88;100.00
42591;BME280;28218;53.342;-6.216;2023-02-28T09:03:37;103868.72;;;7.92;100.00
42591;BME280;28218;53.342;-6.216;2023-02-28T09:06:05;103868.72;;;7.92;100.00
42591;BME280;28218;53.342;-6.216;2023-02-28T09:08:35;103870.25;;;7.97;100.00
42591;BME280;28218;53.342;-6.216;2023-02-28T09:11:04;103867.47;;;8.00;100.00
42591;BME280;28218;53.342;-6.216;2023-02-28T09:13:33;103873.44;;;8.03;100.00
42591;BME280;28218;53.342;-6.216;2023-02-28T09:16:04;103877.69;;;8.06;100.00
42591;BME280;28218;53.342;-6.216;2023-02-28T09:18:33;103876.91;;;8.04;100.00
42591;BME280;28218;53.342;-6.216;2023-02-28T09:21:04;103886.66;;;8.02;100.00
42591;BME280;28218;53.342;-6.216;2023-02-28T09:23:32;103889.41;;;7.99;100.00
42591;BME280;28218;53.342;-6.216;2023-02-28T09:26:02;103887.13;;;8.10;100.00
42591;BME280;28218;53.342;-6.216;2023-02-28T09:28:31;103887.59;;;8.18;100.00
42591;BME280;28218;53.342;-6.216;2023-02-28T09:30:59;103889.75;;;8.27;100.00
42591;BME280;28218;53.342;-6.216;2023-02-28T09:33:27;103896.16;;;8.40;100.00
42591;BME280;28218;53.342;-6.216;2023-02-28T09:36:00;103900.41;;;8.43;100.00
42591;BME280;28218;53.342;-6.216;2023-02-28T09:38:30;103897.00;;;8.41;100.00
42591;BME280;28218;53.342;-6.216;2023-02-28T09:41:02;103903.28;;;8.38;100.00
42591;BME280;28218;53.342;-6.216;2023-02-28T09:43:34;103903.28;;;8.38;100.00
42591;BME280;28218;53.342;-6.216;2023-02-28T09:46:08;103902.34;;;8.39;100.00
42591;BME280;28218;53.342;-6.216;2023-02-28T09:48:44;103901.41;;;8.40;100.00
42591;BME280;28218;53.342;-6.216;2023-02-28T09:51:26;103896.84;;;8.44;100.00
42591;BME280;28218;53.342;-6.216;2023-02-28T09:53:56;103891.84;;;8.57;100.00
42591;BME280;28218;53.342;-6.216;2023-02-28T09:56:36;103889.88;;;8.78;100.00
42591;BME280;28218;53.342;-6.216;2023-02-28T09:59:11;103885.59;;;8.92;100.00
42591;BME280;28218;53.342;-6.216;2023-02-28T10:01:48;103879.16;;;9.15;100.00
42591;BME280;28218;53.342;-6.216;2023-02-28T10:04:35;103881.78;;;9.31;100.00
42591;BME280;28218;53.342;-6.216;2023-02-28T10:07:16;103880.03;;;9.47;100.00
42591;BME280;28218;53.342;-6.216;2023-02-28T10:09:49;103886.50;;;9.58;100.00
42591;BME280;28218;53.342;-6.216;2023-02-28T10:12:21;103888.97;;;9.61;100.00
42591;BME280;28218;53.342;-6.216;2023-02-28T10:14:52;103892.34;;;9.63;100.00
42591;BME280;28218;53.342;-6.216;2023-02-28T10:17:25;103901.34;;;9.59;100.00
42591;BME280;28218;53.342;-6.216;2023-02-28T10:19:59;103908.66;;;9.54;100.00
42591;BME280;28218;53.342;-6.216;2023-02-28T10:22:40;103904.34;;;9.53;100.00
42591;BME280;28218;53.342;-6.216;2023-02-28T10:25:19;103893.72;;;9.54;100.00
42591;BME280;28218;53.342;-6.216;2023-02-28T10:27:49;103898.72;;;9.59;100.00
42591;BME280;28218;53.342;-6.216;2023-02-28T10:30:18;103900.75;;;9.54;100.00
42591;BME280;28218;53.342;-6.216;2023-02-28T10:32:49;103908.59;;;9.55;100.00
42591;BME280;28218;53.342;-6.216;2023-02-28T10:35:21;103908.06;;;9.64;100.00
42591;BME280;28218;53.342;-6.216;2023-02-28T10:37:51;103916.50;;;9.71;100.00
42591;BME280;28218;53.342;-6.216;2023-02-28T10:40:32;103914.34;;;9.78;100.00
42591;BME280;28218;53.342;-6.216;2023-02-28T10:43:04;103918.38;;;9.85;100.00
42591;BME280;28218;53.342;-6.216;2023-02-28T10:45:35;103928.97;;;9.83;100.00
42591;BME280;28218;53.342;-6.216;2023-02-28T10:48:06;103915.47;;;9.89;100.00
42591;BME280;28218;53.342;-6.216;2023-02-28T10:50:43;103927.59;;;9.92;100.00
42591;BME280;28218;53.342;-6.216;2023-02-28T10:53:23;103928.72;;;10.04;100.00
42591;BME280;28218;53.342;-6.216;2023-02-28T10:55:57;103927.44;;;10.11;100.00
42591;BME280;28218;53.342;-6.216;2023-02-28T10:58:31;103922.09;;;10.12;100.00
42591;BME280;28218;53.342;-6.216;2023-02-28T11:00:59;103913.72;;;10.20;100.00
42591;BME280;28218;53.342;-6.216;2023-02-28T11:03:32;103922.66;;;10.33;100.00
42591;BME280;28218;53.342;-6.216;2023-02-28T11:06:06;103930.41;;;10.36;100.00
42591;BME280;28218;53.342;-6.216;2023-02-28T11:08:44;103925.63;;;10.11;100.00
42591;BME280;28218;53.342;-6.216;2023-02-28T11:11:13;103921.66;;;10.04;100.00
42591;BME280;28218;53.342;-6.216;2023-02-28T11:13:46;103924.56;;;9.99;100.00
42591;BME280;28218;53.342;-6.216;2023-02-28T11:16:16;103925.31;;;10.02;100.00
42591;BME280;28218;53.342;-6.216;2023-02-28T11:18:48;103912.72;;;10.07;100.00
42591;BME280;28218;53.342;-6.216;2023-02-28T11:21:21;103916.13;;;10.09;100.00
42591;BME280;28218;53.342;-6.216;2023-02-28T11:23:52;103924.97;;;10.08;100.00
42591;BME280;28218;53.342;-6.216;2023-02-28T11:26:40;103910.88;;;10.09;100.00
42591;BME280;28218;53.342;-6.216;2023-02-28T11:29:16;103912.13;;;10.02;100.00
42591;BME280;28218;53.342;-6.216;2023-02-28T11:32:02;103910.69;;;9.96;100.00
42591;BME280;28218;53.342;-6.216;2023-02-28T11:34:31;103910.00;;;9.92;100.00
42591;BME280;28218;53.342;-6.216;2023-02-28T11:37:01;103912.00;;;9.89;100.00
42591;BME280;28218;53.342;-6.216;2023-02-28T11:39:32;103924.22;;;9.74;100.00
42591;BME280;28218;53.342;-6.216;2023-02-28T11:42:24;103912.56;;;9.46;100.00
42591;BME280;28218;53.342;-6.216;2023-02-28T11:45:13;103924.38;;;9.22;100.00
42591;BME280;28218;53.342;-6.216;2023-02-28T11:47:47;103930.69;;;9.02;100.00
42591;BME280;28218;53.342;-6.216;2023-02-28T11:50:22;103916.31;;;8.92;100.00
42591;BME280;28218;53.342;-6.216;2023-02-28T11:52:56;103912.09;;;8.89;100.00
42591;BME280;28218;53.342;-6.216;2023-02-28T11:55:31;103913.69;;;8.92;100.00
42591;BME280;28218;53.342;-6.216;2023-02-28T11:58:17;103912.00;;;8.91;100.00
42591;BME280;28218;53.342;-6.216;2023-02-28T12:01:05;103919.97;;;8.89;100.00
42591;BME280;28218;53.342;-6.216;2023-02-28T12:03:43;103916.84;;;8.99;100.00
42591;BME280;28218;53.342;-6.216;2023-02-28T12:06:21;103909.03;;;9.14;100.00
42591;BME280;28218;53.342;-6.216;2023-02-28T12:09:02;103914.88;;;9.19;100.00
42591;BME280;28218;53.342;-6.216;2023-02-28T12:11:40;103898.06;;;9.22;100.00
42591;BME280;28218;53.342;-6.216;2023-02-28T12:14:25;103897.16;;;9.23;100.00
42591;BME280;28218;53.342;-6.216;2023-02-28T12:17:06;103898.72;;;9.27;100.00
42591;BME280;28218;53.342;-6.216;2023-02-28T12:19:45;103902.19;;;9.28;100.00
42591;BME280;28218;53.342;-6.216;2023-02-28T12:22:28;103903.88;;;9.29;100.00
42591;BME280;28218;53.342;-6.216;2023-02-28T12:25:39;103911.22;;;9.22;100.00
42591;BME280;28218;53.342;-6.216;2023-02-28T12:28:13;103903.34;;;9.22;100.00
42591;BME280;28218;53.342;-6.216;2023-02-28T12:30:49;103909.25;;;9.10;100.00
42591;BME280;28218;53.342;-6.216;2023-02-28T12:33:21;103916.59;;;9.03;100.00
42591;BME280;28218;53.342;-6.216;2023-02-28T12:35:54;103912.00;;;8.91;100.00
42591;BME280;28218;53.342;-6.216;2023-02-28T12:38:27;103907.13;;;8.83;100.00
42591;BME280;28218;53.342;-6.216;2023-02-28T12:41:00;103906.59;;;8.77;100.00
42591;BME280;28218;53.342;-6.216;2023-02-28T12:43:34;103904.91;;;8.76;100.00
42591;BME280;28218;53.342;-6.216;2023-02-28T12:46:09;103891.91;;;8.73;100.00
42591;BME280;28218;53.342;-6.216;2023-02-28T12:48:43;103903.34;;;8.72;100.00
42591;BME280;28218;53.342;-6.216;2023-02-28T12:51:13;103896.94;;;8.77;100.00
42591;BME280;28218;53.342;-6.216;2023-02-28T12:53:53;103885.84;;;8.88;100.00
42591;BME280;28218;53.342;-6.216;2023-02-28T12:56:32;103884.84;;;8.90;100.00
42591;BME280;28218;53.342;-6.216;2023-02-28T12:59:03;103879.28;;;9.12;100.00
42591;BME280;28218;53.342;-6.216;2023-02-28T13:02:04;103880.53;;;9.23;100.00
42591;BME280;28218;53.342;-6.216;2023-02-28T13:04:55;103891.59;;;9.12;100.00
42591;BME280;28218;53.342;-6.216;2023-02-28T13:10:42;103878.06;;;8.86;100.00
42591;BME280;28218;53.342;-6.216;2023-02-28T13:13:16;103876.50;;;8.82;100.00